createdAt,value
2023-04-29T00:04:58.020Z,18.80
2023-04-29T00:10:00.169Z,18.80
2023-04-29T00:15:03.139Z,18.80
2023-04-29T00:20:06.245Z,18.80
2023-04-29T00:25:08.938Z,18.70
2023-04-29T00:30:11.357Z,18.70
2023-04-29T00:35:13.568Z,18.70
2023-04-29T00:40:16.469Z,18.80
2023-04-29T00:45:18.346Z,18.80
2023-04-29T00:50:21.556Z,18.80
2023-04-29T00:55:24.423Z,18.80
2023-04-29T01:00:26.922Z,18.80
2023-04-29T01:05:28.890Z,18.90
2023-04-29T01:10:41.717Z,18.80
2023-04-29T01:15:59.242Z,18.50
2023-04-29T01:21:01.646Z,18.50
2023-04-29T01:26:03.611Z,18.50
2023-04-29T01:31:32.689Z,18.60
2023-04-29T01:36:50.652Z,18.70
2023-04-29T01:42:23.114Z,18.70
2023-04-29T01:47:27.272Z,18.70
2023-04-29T01:52:29.924Z,18.70
2023-04-29T01:57:32.367Z,18.70
2023-04-29T02:02:42.173Z,18.60
2023-04-29T02:07:54.914Z,18.40
2023-04-29T02:12:57.159Z,18.40
2023-04-29T02:17:59.518Z,18.40
2023-04-29T02:23:01.475Z,18.40
2023-04-29T02:28:03.426Z,18.40
2023-04-29T02:33:07.748Z,18.50
2023-04-29T02:38:10.569Z,18.50
2023-04-29T02:43:12.767Z,18.50
2023-04-29T02:48:14.838Z,18.50
2023-04-29T02:53:17.229Z,18.40
2023-04-29T02:58:19.077Z,18.40
2023-04-29T03:03:20.957Z,18.40
2023-04-29T03:08:23.080Z,18.40
2023-04-29T03:13:24.970Z,18.40
2023-04-29T03:18:26.929Z,18.30
2023-04-29T03:23:29.034Z,18.40
2023-04-29T03:28:31.090Z,18.40
2023-04-29T03:33:33.079Z,18.40
2023-04-29T03:38:35.547Z,18.40
2023-04-29T03:43:39.289Z,18.40
2023-04-29T03:48:41.152Z,18.40
2023-04-29T03:53:43.285Z,18.30
2023-04-29T03:58:46.392Z,18.30
2023-04-29T04:03:48.767Z,18.30
2023-04-29T04:08:50.992Z,18.30
2023-04-29T04:13:57.617Z,18.40
2023-04-29T04:18:59.868Z,18.40
2023-04-29T04:24:01.949Z,18.40
2023-04-29T04:29:05.351Z,18.40
2023-04-29T04:34:13.521Z,18.40
2023-04-29T04:39:15.884Z,18.40
2023-04-29T04:44:18.151Z,18.30
2023-04-29T04:49:33.373Z,18.30
2023-04-29T04:54:36.193Z,18.30
2023-04-29T04:59:49.485Z,18.20
2023-04-29T05:04:51.789Z,18.20
2023-04-29T05:09:55.567Z,18.20
2023-04-29T05:14:58.204Z,18.10
2023-04-29T05:20:02.207Z,18.10
2023-04-29T05:25:05.863Z,18.10
2023-04-29T05:30:10.758Z,18.10
2023-04-29T05:35:13.067Z,18.00
2023-04-29T05:40:15.847Z,18.10
2023-04-29T05:45:18.750Z,18.10
2023-04-29T05:50:21.651Z,18.10
2023-04-29T05:55:23.833Z,18.10
2023-04-29T06:00:26.178Z,18.10
2023-04-29T06:05:36.264Z,18.10
2023-04-29T06:11:02.077Z,18.00
2023-04-29T06:16:04.587Z,18.00
2023-04-29T06:21:09.030Z,18.00
2023-04-29T06:26:11.792Z,18.00
2023-04-29T06:31:13.930Z,18.10
2023-04-29T06:36:17.218Z,18.20
2023-04-29T06:41:52.227Z,18.20
2023-04-29T06:47:20.235Z,18.30
2023-04-29T06:52:49.370Z,18.30
2023-04-29T06:57:51.528Z,18.40
2023-04-29T07:02:53.556Z,18.30
2023-04-29T07:07:55.509Z,18.20
2023-04-29T07:12:57.437Z,18.20
2023-04-29T07:18:00.537Z,18.30
2023-04-29T07:23:03.028Z,18.50
2023-04-29T07:28:09.349Z,18.60
2023-04-29T07:33:11.860Z,18.80
2023-04-29T07:38:18.719Z,19.00
2023-04-29T07:43:21.945Z,19.20
2023-04-29T07:48:27.135Z,19.30
2023-04-29T07:53:35.138Z,19.40
2023-04-29T07:58:37.287Z,19.50
2023-04-29T08:03:42.470Z,19.70
2023-04-29T08:08:49.408Z,19.80
2023-04-29T08:13:54.932Z,20.00
2023-04-29T08:19:02.314Z,20.20
2023-04-29T08:24:08.039Z,20.40
2023-04-29T08:29:11.432Z,20.50
2023-04-29T08:34:20.221Z,20.50
2023-04-29T08:39:33.375Z,20.50
2023-04-29T08:50:06.538Z,20.80
2023-04-29T08:55:19.226Z,20.70
2023-04-29T09:00:23.072Z,20.70
2023-04-29T09:05:26.962Z,20.80
2023-04-29T09:10:29.350Z,21.10
2023-04-29T09:15:37.345Z,21.30
2023-04-29T09:20:39.703Z,21.60
2023-04-29T09:25:41.890Z,21.90
2023-04-29T09:30:47.344Z,22.10
2023-04-29T09:35:49.314Z,22.30
2023-04-29T09:40:59.538Z,22.50
2023-04-29T09:46:02.971Z,22.70
2023-04-29T09:51:05.026Z,22.90
2023-04-29T09:56:07.399Z,23.10
2023-04-29T10:01:10.458Z,23.30
2023-04-29T10:06:13.370Z,23.40
2023-04-29T10:11:17.579Z,23.50
2023-04-29T10:16:31.428Z,23.70
2023-04-29T10:21:34.201Z,23.90
2023-04-29T10:26:39.404Z,24.00
2023-04-29T10:31:44.437Z,24.00
2023-04-29T10:36:47.291Z,24.10
2023-04-29T10:41:51.037Z,24.20
2023-04-29T10:47:19.283Z,24.40
2023-04-29T10:52:21.511Z,24.50
2023-04-29T10:57:25.304Z,24.60
2023-04-29T11:02:27.623Z,24.70
2023-04-29T11:07:30.304Z,24.80
2023-04-29T11:12:32.286Z,24.70
2023-04-29T11:17:38.621Z,24.70
2023-04-29T11:22:51.160Z,24.80
2023-04-29T11:27:55.472Z,25.00
2023-04-29T11:32:59.695Z,25.20
2023-04-29T11:38:02.071Z,25.20
2023-04-29T11:43:04.593Z,25.30
2023-04-29T11:48:06.731Z,25.40
2023-04-29T11:53:08.741Z,25.40
2023-04-29T11:58:10.855Z,25.60
2023-04-29T12:03:16.432Z,25.50
2023-04-29T12:08:26.909Z,25.40
2023-04-29T12:13:30.659Z,25.40
2023-04-29T12:18:32.836Z,25.40
2023-04-29T12:23:36.266Z,25.50
2023-04-29T12:28:41.434Z,25.70
2023-04-29T12:33:47.199Z,25.70
2023-04-29T12:38:49.660Z,25.70
2023-04-29T12:43:51.686Z,25.80
2023-04-29T12:48:53.604Z,25.60
2023-04-29T12:53:55.602Z,25.30
2023-04-29T12:59:04.644Z,24.90
2023-04-29T13:04:09.160Z,24.60
2023-04-29T13:09:17.074Z,24.20
2023-04-29T13:14:21.179Z,23.90
2023-04-29T13:24:27.754Z,23.40
2023-04-29T13:29:29.595Z,23.20
2023-04-29T13:34:31.512Z,23.10
2023-04-29T13:39:37.896Z,22.90
2023-04-29T13:44:52.276Z,22.80
2023-04-29T14:00:38.042Z,23.10
2023-04-29T14:05:39.768Z,23.00
2023-04-29T14:10:41.669Z,22.80
2023-04-29T14:15:43.641Z,22.80
2023-04-29T14:20:45.504Z,22.70
2023-04-29T14:25:47.463Z,22.70
2023-04-29T14:30:49.244Z,22.60
2023-04-29T14:35:51.387Z,22.40
2023-04-29T14:40:53.265Z,22.30
2023-04-29T14:45:55.750Z,22.20
2023-04-29T14:50:57.850Z,22.30
2023-04-29T14:55:59.868Z,22.30
2023-04-29T15:01:01.688Z,22.30
2023-04-29T15:06:04.225Z,22.40
2023-04-29T15:11:06.027Z,22.50
2023-04-29T15:16:08.163Z,22.70
2023-04-29T15:21:11.356Z,22.80
2023-04-29T15:26:13.441Z,22.80
2023-04-29T15:31:15.610Z,22.60
2023-04-29T15:36:17.403Z,22.50
2023-04-29T15:41:19.282Z,22.50
2023-04-29T15:46:21.755Z,22.60
2023-04-29T15:51:23.963Z,22.70
2023-04-29T15:56:26.048Z,23.00
2023-04-29T16:01:28.192Z,23.20
2023-04-29T16:06:30.215Z,23.40
2023-04-29T16:11:32.550Z,23.50
2023-04-29T16:16:34.484Z,23.60
2023-04-29T16:21:36.347Z,23.70
2023-04-29T16:26:40.384Z,23.80
2023-04-29T16:31:42.703Z,23.90
2023-04-29T16:36:44.662Z,23.80
2023-04-29T16:41:46.481Z,23.70
2023-04-29T16:46:48.351Z,23.60
2023-04-29T16:51:50.641Z,23.60
2023-04-29T16:56:52.439Z,23.60
2023-04-29T17:01:55.262Z,23.60
2023-04-29T17:06:57.196Z,23.60
2023-04-29T17:11:59.052Z,23.60
2023-04-29T17:17:00.909Z,23.60
2023-04-29T17:22:02.812Z,23.50
2023-04-29T17:27:05.414Z,23.50
2023-04-29T17:32:17.124Z,23.50
2023-04-29T17:37:24.812Z,23.50
2023-04-29T17:42:26.638Z,23.50
2023-04-29T17:47:28.578Z,23.30
2023-04-29T17:52:31.522Z,23.00
2023-04-29T17:57:33.932Z,22.80
2023-04-29T18:02:37.239Z,22.60
2023-04-29T18:07:39.354Z,22.30
2023-04-29T18:12:41.505Z,22.10
2023-04-29T18:17:44.182Z,22.00
2023-04-29T18:22:46.445Z,21.80
2023-04-29T18:27:48.496Z,21.50
2023-04-29T18:32:50.691Z,21.30
2023-04-29T18:37:52.659Z,21.20
2023-04-29T18:42:54.651Z,21.00
2023-04-29T18:47:56.600Z,20.90
2023-04-29T18:52:58.701Z,20.60
2023-04-29T18:58:00.613Z,20.30
2023-04-29T19:03:02.605Z,20.30
2023-04-29T19:08:04.855Z,20.20
2023-04-29T19:13:06.937Z,20.00
2023-04-29T19:18:09.049Z,19.90
2023-04-29T19:23:11.047Z,19.80
2023-04-29T19:28:13.325Z,19.80
2023-04-29T19:33:15.525Z,19.80
2023-04-29T19:38:17.750Z,19.70
2023-04-29T19:43:19.874Z,19.60
2023-04-29T19:48:21.851Z,19.50
2023-04-29T19:53:23.845Z,19.30
2023-04-29T19:58:28.903Z,19.20
2023-04-29T20:03:31.008Z,19.20
2023-04-29T20:08:42.199Z,19.00
2023-04-29T20:13:44.717Z,18.90
2023-04-29T20:18:48.117Z,18.90
2023-04-29T20:23:50.081Z,18.80
2023-04-29T20:28:52.377Z,18.90
2023-04-29T20:33:54.791Z,18.90
2023-04-29T20:38:59.395Z,18.90
2023-04-29T20:44:04.477Z,18.90
2023-04-29T20:49:06.512Z,18.80
2023-04-29T20:54:08.564Z,18.60
2023-04-29T20:59:10.501Z,18.60
2023-04-29T21:04:12.587Z,18.60
2023-04-29T21:09:14.520Z,18.60
2023-04-29T21:14:16.618Z,18.60
2023-04-29T21:19:18.661Z,18.60
2023-04-29T21:24:26.937Z,18.50
2023-04-29T21:29:28.888Z,18.60
2023-04-29T21:34:30.795Z,18.60
2023-04-29T21:39:32.877Z,18.50
2023-04-29T21:44:35.363Z,18.50
2023-04-29T21:49:37.503Z,18.30
2023-04-29T21:54:39.682Z,18.20
2023-04-29T21:59:41.890Z,18.20
2023-04-29T22:04:43.897Z,18.20
2023-04-29T22:09:49.634Z,18.00
2023-04-29T22:14:51.609Z,18.10
2023-04-29T22:19:54.461Z,18.00
2023-04-29T22:24:56.803Z,18.00
2023-04-29T22:29:58.724Z,18.00
2023-04-29T22:35:00.912Z,18.00
2023-04-29T22:40:03.041Z,17.90
2023-04-29T22:45:05.471Z,17.70
2023-04-29T22:50:09.743Z,17.70
2023-04-29T22:55:11.780Z,17.80
2023-04-29T23:00:14.377Z,17.80
2023-04-29T23:05:16.643Z,17.90
2023-04-29T23:10:19.322Z,17.90
2023-04-29T23:15:21.242Z,17.90
2023-04-29T23:20:23.395Z,17.90
2023-04-29T23:25:25.864Z,17.90
2023-04-29T23:30:27.905Z,17.90
2023-04-29T23:35:29.848Z,17.90
2023-04-29T23:40:33.095Z,17.90
2023-04-29T23:45:35.058Z,17.90
2023-04-29T23:50:40.019Z,17.80
2023-04-29T23:55:41.942Z,17.80
